sensor_id;sensor_type;location;lat;lon;timestamp;temperature;humidity
69084;SHT31;56185;48.526;9.044;2022-12-05T00:03:58;3.52;83.92
69084;SHT31;56185;48.526;9.044;2022-12-05T00:06:25;3.57;83.25
69084;SHT31;56185;48.526;9.044;2022-12-05T00:08:51;3.49;83.08
69084;SHT31;56185;48.526;9.044;2022-12-05T00:11:19;3.43;83.27
69084;SHT31;56185;48.526;9.044;2022-12-05T00:13:45;3.56;82.83
69084;SHT31;56185;48.526;9.044;2022-12-05T00:16:13;3.55;82.38
69084;SHT31;56185;48.526;9.044;2022-12-05T00:18:39;3.47;83.01
69084;SHT31;56185;48.526;9.044;2022-12-05T00:21:06;3.52;83.64
69084;SHT31;56185;48.526;9.044;2022-12-05T00:23:31;3.50;83.59
69084;SHT31;56185;48.526;9.044;2022-12-05T00:26:00;3.49;83.28
69084;SHT31;56185;48.526;9.044;2022-12-05T00:28:26;3.44;84.06
69084;SHT31;56185;48.526;9.044;2022-12-05T00:30:51;3.47;83.39
69084;SHT31;56185;48.526;9.044;2022-12-05T00:33:16;3.57;82.55
69084;SHT31;56185;48.526;9.044;2022-12-05T00:35:42;3.63;83.27
69084;SHT31;56185;48.526;9.044;2022-12-05T00:38:07;3.60;83.98
69084;SHT31;56185;48.526;9.044;2022-12-05T00:40:34;3.63;82.90
69084;SHT31;56185;48.526;9.044;2022-12-05T00:43:00;3.59;83.32
69084;SHT31;56185;48.526;9.044;2022-12-05T00:45:25;3.71;82.99
69084;SHT31;56185;48.526;9.044;2022-12-05T00:47:50;3.70;82.79
69084;SHT31;56185;48.526;9.044;2022-12-05T00:50:15;3.57;83.26
69084;SHT31;56185;48.526;9.044;2022-12-05T00:52:41;3.64;82.98
69084;SHT31;56185;48.526;9.044;2022-12-05T00:55:06;3.64;83.40
69084;SHT31;56185;48.526;9.044;2022-12-05T00:57:31;3.62;83.65
69084;SHT31;56185;48.526;9.044;2022-12-05T00:59:57;3.66;83.27
69084;SHT31;56185;48.526;9.044;2022-12-05T01:02:22;3.64;83.33
69084;SHT31;56185;48.526;9.044;2022-12-05T01:04:47;3.56;83.54
69084;SHT31;56185;48.526;9.044;2022-12-05T01:07:12;3.49;83.85
69084;SHT31;56185;48.526;9.044;2022-12-05T01:09:38;3.39;84.29
69084;SHT31;56185;48.526;9.044;2022-12-05T01:12:03;3.49;84.34
69084;SHT31;56185;48.526;9.044;2022-12-05T01:14:28;3.39;84.35
69084;SHT31;56185;48.526;9.044;2022-12-05T01:16:54;3.42;84.15
69084;SHT31;56185;48.526;9.044;2022-12-05T01:19:23;3.37;84.38
69084;SHT31;56185;48.526;9.044;2022-12-05T01:21:49;3.29;84.74
69084;SHT31;56185;48.526;9.044;2022-12-05T01:24:16;3.37;84.81
69084;SHT31;56185;48.526;9.044;2022-12-05T01:26:42;3.35;85.16
69084;SHT31;56185;48.526;9.044;2022-12-05T01:29:08;3.30;84.95
69084;SHT31;56185;48.526;9.044;2022-12-05T01:31:35;3.30;85.00
69084;SHT31;56185;48.526;9.044;2022-12-05T01:34:03;3.36;84.72
69084;SHT31;56185;48.526;9.044;2022-12-05T01:36:29;3.25;85.29
69084;SHT31;56185;48.526;9.044;2022-12-05T01:38:55;3.33;85.10
69084;SHT31;56185;48.526;9.044;2022-12-05T01:41:24;3.37;85.11
69084;SHT31;56185;48.526;9.044;2022-12-05T01:44:04;3.32;85.29
69084;SHT31;56185;48.526;9.044;2022-12-05T01:46:35;3.30;85.47
69084;SHT31;56185;48.526;9.044;2022-12-05T01:49:06;3.35;85.58
69084;SHT31;56185;48.526;9.044;2022-12-05T01:51:35;3.39;85.02
69084;SHT31;56185;48.526;9.044;2022-12-05T01:54:03;3.44;84.61
69084;SHT31;56185;48.526;9.044;2022-12-05T01:56:30;3.40;84.99
69084;SHT31;56185;48.526;9.044;2022-12-05T01:58:56;3.35;85.13
69084;SHT31;56185;48.526;9.044;2022-12-05T02:01:21;3.39;85.44
69084;SHT31;56185;48.526;9.044;2022-12-05T02:03:49;3.33;85.56
69084;SHT31;56185;48.526;9.044;2022-12-05T02:06:15;3.42;85.55
69084;SHT31;56185;48.526;9.044;2022-12-05T02:08:42;3.53;84.94
69084;SHT31;56185;48.526;9.044;2022-12-05T02:11:08;3.47;85.13
69084;SHT31;56185;48.526;9.044;2022-12-05T02:16:36;3.53;85.08
69084;SHT31;56185;48.526;9.044;2022-12-05T02:30:13;3.42;85.87
69084;SHT31;56185;48.526;9.044;2022-12-05T02:33:02;3.35;86.38
69084;SHT31;56185;48.526;9.044;2022-12-05T02:35:58;3.46;86.36
69084;SHT31;56185;48.526;9.044;2022-12-05T02:43:51;3.47;86.25
69084;SHT31;56185;48.526;9.044;2022-12-05T02:46:25;3.33;86.27
69084;SHT31;56185;48.526;9.044;2022-12-05T02:48:54;3.27;86.83
69084;SHT31;56185;48.526;9.044;2022-12-05T02:51:23;3.36;86.58
69084;SHT31;56185;48.526;9.044;2022-12-05T02:53:49;3.33;86.88
69084;SHT31;56185;48.526;9.044;2022-12-05T02:56:16;3.39;86.59
69084;SHT31;56185;48.526;9.044;2022-12-05T02:58:52;3.46;86.53
69084;SHT31;56185;48.526;9.044;2022-12-05T03:01:20;3.43;86.63
69084;SHT31;56185;48.526;9.044;2022-12-05T03:03:47;3.46;86.55
69084;SHT31;56185;48.526;9.044;2022-12-05T03:06:22;3.55;86.27
69084;SHT31;56185;48.526;9.044;2022-12-05T03:11:21;3.62;85.86
69084;SHT31;56185;48.526;9.044;2022-12-05T03:13:51;3.70;85.64
69084;SHT31;56185;48.526;9.044;2022-12-05T03:16:26;3.59;85.82
69084;SHT31;56185;48.526;9.044;2022-12-05T03:19:13;3.53;86.02
69084;SHT31;56185;48.526;9.044;2022-12-05T03:21:46;3.57;86.24
69084;SHT31;56185;48.526;9.044;2022-12-05T03:24:14;3.63;86.22
69084;SHT31;56185;48.526;9.044;2022-12-05T03:26:55;3.60;86.00
69084;SHT31;56185;48.526;9.044;2022-12-05T03:29:33;3.50;86.24
69084;SHT31;56185;48.526;9.044;2022-12-05T03:51:25;3.64;86.09
69084;SHT31;56185;48.526;9.044;2022-12-05T03:53:56;3.57;86.21
69084;SHT31;56185;48.526;9.044;2022-12-05T03:56:29;3.60;85.57
69084;SHT31;56185;48.526;9.044;2022-12-05T04:01:54;3.50;86.11
69084;SHT31;56185;48.526;9.044;2022-12-05T04:04:28;3.49;86.26
69084;SHT31;56185;48.526;9.044;2022-12-05T04:06:57;3.40;86.24
69084;SHT31;56185;48.526;9.044;2022-12-05T04:09:27;3.40;86.30
69084;SHT31;56185;48.526;9.044;2022-12-05T04:12:01;3.35;86.40
69084;SHT31;56185;48.526;9.044;2022-12-05T04:14:31;3.26;86.35
69084;SHT31;56185;48.526;9.044;2022-12-05T04:17:03;3.19;86.48
69084;SHT31;56185;48.526;9.044;2022-12-05T04:22:00;3.09;86.49
69084;SHT31;56185;48.526;9.044;2022-12-05T04:24:29;3.06;86.44
69084;SHT31;56185;48.526;9.044;2022-12-05T04:27:07;2.96;86.62
69084;SHT31;56185;48.526;9.044;2022-12-05T04:29:37;3.02;86.40
69084;SHT31;56185;48.526;9.044;2022-12-05T04:32:07;2.95;87.05
69084;SHT31;56185;48.526;9.044;2022-12-05T04:34:35;2.91;87.21
69084;SHT31;56185;48.526;9.044;2022-12-05T04:37:05;2.96;87.07
69084;SHT31;56185;48.526;9.044;2022-12-05T04:39:45;3.02;87.42
69084;SHT31;56185;48.526;9.044;2022-12-05T04:42:15;2.96;87.56
69084;SHT31;56185;48.526;9.044;2022-12-05T04:44:49;2.99;87.55
69084;SHT31;56185;48.526;9.044;2022-12-05T04:47:18;3.05;87.59
69084;SHT31;56185;48.526;9.044;2022-12-05T04:49:45;2.89;88.02
69084;SHT31;56185;48.526;9.044;2022-12-05T04:52:11;2.92;87.98
69084;SHT31;56185;48.526;9.044;2022-12-05T04:54:44;2.96;87.80
69084;SHT31;56185;48.526;9.044;2022-12-05T04:57:21;2.83;88.03
69084;SHT31;56185;48.526;9.044;2022-12-05T04:59:48;2.92;87.87
69084;SHT31;56185;48.526;9.044;2022-12-05T05:02:17;2.77;88.21
69084;SHT31;56185;48.526;9.044;2022-12-05T05:04:46;2.83;88.23
69084;SHT31;56185;48.526;9.044;2022-12-05T05:07:13;2.87;88.24
69084;SHT31;56185;48.526;9.044;2022-12-05T05:09:39;2.85;88.56
69084;SHT31;56185;48.526;9.044;2022-12-05T05:12:05;2.80;88.63
69084;SHT31;56185;48.526;9.044;2022-12-05T05:14:30;2.85;88.74
69084;SHT31;56185;48.526;9.044;2022-12-05T05:16:56;2.88;88.76
69084;SHT31;56185;48.526;9.044;2022-12-05T05:19:22;2.89;89.01
69084;SHT31;56185;48.526;9.044;2022-12-05T05:21:47;3.09;88.67
69084;SHT31;56185;48.526;9.044;2022-12-05T05:24:14;3.19;88.02
69084;SHT31;56185;48.526;9.044;2022-12-05T05:26:42;3.13;88.08
69084;SHT31;56185;48.526;9.044;2022-12-05T05:29:08;3.23;87.59
69084;SHT31;56185;48.526;9.044;2022-12-05T05:31:35;3.26;87.72
69084;SHT31;56185;48.526;9.044;2022-12-05T05:34:00;3.12;88.37
69084;SHT31;56185;48.526;9.044;2022-12-05T05:36:26;3.25;88.16
69084;SHT31;56185;48.526;9.044;2022-12-05T05:38:56;3.22;88.09
69084;SHT31;56185;48.526;9.044;2022-12-05T05:41:23;3.19;87.69
69084;SHT31;56185;48.526;9.044;2022-12-05T05:43:50;3.06;87.92
69084;SHT31;56185;48.526;9.044;2022-12-05T05:46:17;3.16;87.72
69084;SHT31;56185;48.526;9.044;2022-12-05T05:48:42;3.19;88.04
69084;SHT31;56185;48.526;9.044;2022-12-05T05:51:09;3.09;88.15
69084;SHT31;56185;48.526;9.044;2022-12-05T05:53:35;3.15;88.05
69084;SHT31;56185;48.526;9.044;2022-12-05T05:56:06;3.20;87.78
69084;SHT31;56185;48.526;9.044;2022-12-05T05:58:32;3.32;87.21
69084;SHT31;56185;48.526;9.044;2022-12-05T06:01:05;3.32;87.44
69084;SHT31;56185;48.526;9.044;2022-12-05T06:03:30;3.33;87.89
69084;SHT31;56185;48.526;9.044;2022-12-05T06:05:57;3.26;88.00
69084;SHT31;56185;48.526;9.044;2022-12-05T06:08:22;3.29;87.77
69084;SHT31;56185;48.526;9.044;2022-12-05T06:10:47;3.32;87.57
69084;SHT31;56185;48.526;9.044;2022-12-05T06:13:13;3.37;87.22
69084;SHT31;56185;48.526;9.044;2022-12-05T06:15:38;3.35;87.14
69084;SHT31;56185;48.526;9.044;2022-12-05T06:18:03;3.36;87.27
69084;SHT31;56185;48.526;9.044;2022-12-05T06:20:28;3.35;87.13
69084;SHT31;56185;48.526;9.044;2022-12-05T06:22:54;3.36;87.14
69084;SHT31;56185;48.526;9.044;2022-12-05T06:25:19;3.35;87.43
69084;SHT31;56185;48.526;9.044;2022-12-05T06:27:44;3.42;87.35
69084;SHT31;56185;48.526;9.044;2022-12-05T06:30:10;3.42;87.13
69084;SHT31;56185;48.526;9.044;2022-12-05T06:32:35;3.43;87.29
69084;SHT31;56185;48.526;9.044;2022-12-05T06:35:00;3.49;87.12
69084;SHT31;56185;48.526;9.044;2022-12-05T06:37:25;3.43;87.03
69084;SHT31;56185;48.526;9.044;2022-12-05T06:39:51;3.42;87.17
69084;SHT31;56185;48.526;9.044;2022-12-05T06:42:16;3.42;86.76
69084;SHT31;56185;48.526;9.044;2022-12-05T06:44:41;3.52;87.24
69084;SHT31;56185;48.526;9.044;2022-12-05T06:47:06;3.49;86.96
69084;SHT31;56185;48.526;9.044;2022-12-05T06:49:31;3.49;86.52
69084;SHT31;56185;48.526;9.044;2022-12-05T06:51:58;3.50;86.21
69084;SHT31;56185;48.526;9.044;2022-12-05T06:54:23;3.39;86.24
69084;SHT31;56185;48.526;9.044;2022-12-05T06:56:48;3.44;86.08
69084;SHT31;56185;48.526;9.044;2022-12-05T06:59:14;3.36;86.35
69084;SHT31;56185;48.526;9.044;2022-12-05T07:01:39;3.33;86.54
69084;SHT31;56185;48.526;9.044;2022-12-05T07:06:33;3.37;86.56
69084;SHT31;56185;48.526;9.044;2022-12-05T07:08:58;3.39;86.77
69084;SHT31;56185;48.526;9.044;2022-12-05T07:11:24;3.57;86.07
69084;SHT31;56185;48.526;9.044;2022-12-05T07:13:49;3.52;86.14
69084;SHT31;56185;48.526;9.044;2022-12-05T07:16:14;3.44;86.69
69084;SHT31;56185;48.526;9.044;2022-12-05T07:18:39;3.57;86.26
69084;SHT31;56185;48.526;9.044;2022-12-05T07:21:07;3.52;86.51
69084;SHT31;56185;48.526;9.044;2022-12-05T07:23:33;3.49;87.03
69084;SHT31;56185;48.526;9.044;2022-12-05T07:25:58;3.44;86.92
69084;SHT31;56185;48.526;9.044;2022-12-05T07:28:23;3.42;87.11
69084;SHT31;56185;48.526;9.044;2022-12-05T07:31:04;3.52;86.91
69084;SHT31;56185;48.526;9.044;2022-12-05T07:33:30;3.62;86.41
69084;SHT31;56185;48.526;9.044;2022-12-05T07:36:06;3.62;86.54
69084;SHT31;56185;48.526;9.044;2022-12-05T07:38:32;3.67;86.38
69084;SHT31;56185;48.526;9.044;2022-12-05T07:40:57;3.67;86.52
69084;SHT31;56185;48.526;9.044;2022-12-05T07:43:23;3.70;86.76
69084;SHT31;56185;48.526;9.044;2022-12-05T07:45:48;3.73;86.74
69084;SHT31;56185;48.526;9.044;2022-12-05T07:48:13;3.56;86.67
69084;SHT31;56185;48.526;9.044;2022-12-05T07:50:39;3.60;86.90
69084;SHT31;56185;48.526;9.044;2022-12-05T07:53:04;3.62;87.08
69084;SHT31;56185;48.526;9.044;2022-12-05T07:55:29;3.70;86.29
69084;SHT31;56185;48.526;9.044;2022-12-05T07:57:54;3.78;86.25
69084;SHT31;56185;48.526;9.044;2022-12-05T08:00:20;3.88;86.33
69084;SHT31;56185;48.526;9.044;2022-12-05T08:02:45;3.99;86.05
69084;SHT31;56185;48.526;9.044;2022-12-05T08:05:11;4.01;85.64
69084;SHT31;56185;48.526;9.044;2022-12-05T08:07:36;4.01;85.91
69084;SHT31;56185;48.526;9.044;2022-12-05T08:10:02;3.78;86.29
69084;SHT31;56185;48.526;9.044;2022-12-05T08:12:27;3.93;85.98
69084;SHT31;56185;48.526;9.044;2022-12-05T08:14:53;3.87;86.14
69084;SHT31;56185;48.526;9.044;2022-12-05T08:17:18;3.90;86.12
69084;SHT31;56185;48.526;9.044;2022-12-05T08:19:43;3.94;86.49
69084;SHT31;56185;48.526;9.044;2022-12-05T08:22:08;3.98;86.20
69084;SHT31;56185;48.526;9.044;2022-12-05T08:24:34;4.01;86.14
69084;SHT31;56185;48.526;9.044;2022-12-05T08:26:59;4.08;85.39
69084;SHT31;56185;48.526;9.044;2022-12-05T08:29:24;4.09;85.37
69084;SHT31;56185;48.526;9.044;2022-12-05T08:31:50;4.01;86.20
69084;SHT31;56185;48.526;9.044;2022-12-05T08:34:17;3.95;86.75
69084;SHT31;56185;48.526;9.044;2022-12-05T08:36:42;4.12;86.27
69084;SHT31;56185;48.526;9.044;2022-12-05T08:39:11;4.28;86.01
69084;SHT31;56185;48.526;9.044;2022-12-05T08:41:36;4.38;85.73
69084;SHT31;56185;48.526;9.044;2022-12-05T08:44:03;4.46;86.20
69084;SHT31;56185;48.526;9.044;2022-12-05T08:46:31;4.53;85.29
69084;SHT31;56185;48.526;9.044;2022-12-05T08:48:57;4.72;85.29
69084;SHT31;56185;48.526;9.044;2022-12-05T08:51:22;4.69;84.77
69084;SHT31;56185;48.526;9.044;2022-12-05T08:53:47;4.65;85.37
69084;SHT31;56185;48.526;9.044;2022-12-05T08:56:12;4.66;85.65
69084;SHT31;56185;48.526;9.044;2022-12-05T08:58:38;4.73;84.75
69084;SHT31;56185;48.526;9.044;2022-12-05T09:01:12;4.76;84.50
69084;SHT31;56185;48.526;9.044;2022-12-05T09:03:38;4.70;84.88
69084;SHT31;56185;48.526;9.044;2022-12-05T09:06:09;4.69;85.32
69084;SHT31;56185;48.526;9.044;2022-12-05T09:08:36;4.67;84.92
69084;SHT31;56185;48.526;9.044;2022-12-05T09:11:22;4.73;84.92
69084;SHT31;56185;48.526;9.044;2022-12-05T09:13:48;4.69;84.88
69084;SHT31;56185;48.526;9.044;2022-12-05T09:16:19;4.62;85.54
69084;SHT31;56185;48.526;9.044;2022-12-05T09:18:46;4.60;85.65
69084;SHT31;56185;48.526;9.044;2022-12-05T09:21:14;4.67;85.55
69084;SHT31;56185;48.526;9.044;2022-12-05T09:23:40;4.62;86.09
69084;SHT31;56185;48.526;9.044;2022-12-05T09:26:08;4.66;86.23
69084;SHT31;56185;48.526;9.044;2022-12-05T09:28:33;4.66;86.12
69084;SHT31;56185;48.526;9.044;2022-12-05T09:31:01;4.72;86.25
69084;SHT31;56185;48.526;9.044;2022-12-05T09:33:28;4.63;85.55
69084;SHT31;56185;48.526;9.044;2022-12-05T09:35:53;4.66;84.94
69084;SHT31;56185;48.526;9.044;2022-12-05T09:38:19;4.73;84.31
69084;SHT31;56185;48.526;9.044;2022-12-05T09:40:44;4.81;84.60
69084;SHT31;56185;48.526;9.044;2022-12-05T09:43:34;4.84;83.98
69084;SHT31;56185;48.526;9.044;2022-12-05T09:46:41;4.91;83.67
69084;SHT31;56185;48.526;9.044;2022-12-05T09:49:08;4.94;83.96
69084;SHT31;56185;48.526;9.044;2022-12-05T09:51:39;5.01;83.87
69084;SHT31;56185;48.526;9.044;2022-12-05T09:54:08;5.05;82.91
69084;SHT31;56185;48.526;9.044;2022-12-05T09:56:34;5.14;82.73
69084;SHT31;56185;48.526;9.044;2022-12-05T09:58:59;5.13;83.55
69084;SHT31;56185;48.526;9.044;2022-12-05T10:06:56;5.21;83.39
69084;SHT31;56185;48.526;9.044;2022-12-05T10:12:19;5.28;83.94
69084;SHT31;56185;48.526;9.044;2022-12-05T10:17:35;5.41;83.47
69084;SHT31;56185;48.526;9.044;2022-12-05T10:20:05;5.32;83.72
69084;SHT31;56185;48.526;9.044;2022-12-05T10:22:47;5.36;83.23
69084;SHT31;56185;48.526;9.044;2022-12-05T10:25:17;5.38;83.81
69084;SHT31;56185;48.526;9.044;2022-12-05T10:27:57;5.35;84.37
69084;SHT31;56185;48.526;9.044;2022-12-05T10:30:26;5.38;83.79
69084;SHT31;56185;48.526;9.044;2022-12-05T10:33:01;5.39;84.13
69084;SHT31;56185;48.526;9.044;2022-12-05T10:35:36;5.46;83.95
69084;SHT31;56185;48.526;9.044;2022-12-05T10:38:18;5.51;83.73
69084;SHT31;56185;48.526;9.044;2022-12-05T10:40:50;5.59;83.51
69084;SHT31;56185;48.526;9.044;2022-12-05T10:43:26;5.55;84.37
69084;SHT31;56185;48.526;9.044;2022-12-05T10:45:52;5.59;83.72
69084;SHT31;56185;48.526;9.044;2022-12-05T10:48:19;5.62;83.72
69084;SHT31;56185;48.526;9.044;2022-12-05T10:50:48;5.65;83.42
69084;SHT31;56185;48.526;9.044;2022-12-05T10:53:37;5.69;83.59
69084;SHT31;56185;48.526;9.044;2022-12-05T10:56:02;5.82;83.79
69084;SHT31;56185;48.526;9.044;2022-12-05T10:58:29;5.96;83.60
69084;SHT31;56185;48.526;9.044;2022-12-05T11:01:06;5.96;82.54
69084;SHT31;56185;48.526;9.044;2022-12-05T11:03:37;6.17;82.03
69084;SHT31;56185;48.526;9.044;2022-12-05T11:06:29;6.33;81.10
69084;SHT31;56185;48.526;9.044;2022-12-05T11:09:21;6.11;81.18
69084;SHT31;56185;48.526;9.044;2022-12-05T11:14:33;6.21;80.59
69084;SHT31;56185;48.526;9.044;2022-12-05T11:16:59;6.27;81.57
69084;SHT31;56185;48.526;9.044;2022-12-05T11:21:52;6.34;80.41
69084;SHT31;56185;48.526;9.044;2022-12-05T11:24:32;6.17;80.63
69084;SHT31;56185;48.526;9.044;2022-12-05T11:30:25;6.16;80.18
69084;SHT31;56185;48.526;9.044;2022-12-05T11:32:32;6.30;80.49
69084;SHT31;56185;48.526;9.044;2022-12-05T11:37:55;6.44;80.63
69084;SHT31;56185;48.526;9.044;2022-12-05T11:40:24;6.34;80.43
69084;SHT31;56185;48.526;9.044;2022-12-05T11:43:15;6.54;79.40
69084;SHT31;56185;48.526;9.044;2022-12-05T11:46:09;6.35;79.84
69084;SHT31;56185;48.526;9.044;2022-12-05T11:51:37;6.44;79.77
69084;SHT31;56185;48.526;9.044;2022-12-05T11:56:59;6.55;79.19
69084;SHT31;56185;48.526;9.044;2022-12-05T11:59:48;6.72;79.70
69084;SHT31;56185;48.526;9.044;2022-12-05T12:08:22;6.72;78.21
69084;SHT31;56185;48.526;9.044;2022-12-05T12:13:32;6.91;78.98
69084;SHT31;56185;48.526;9.044;2022-12-05T12:16:05;6.89;78.29
69084;SHT31;56185;48.526;9.044;2022-12-05T12:21:37;6.81;77.45
69084;SHT31;56185;48.526;9.044;2022-12-05T12:24:59;6.93;77.72
69084;SHT31;56185;48.526;9.044;2022-12-05T12:30:59;7.07;76.87
69084;SHT31;56185;48.526;9.044;2022-12-05T12:33:10;6.99;75.82
69084;SHT31;56185;48.526;9.044;2022-12-05T12:35:58;7.02;76.65
69084;SHT31;56185;48.526;9.044;2022-12-05T12:38:50;7.02;76.30
69084;SHT31;56185;48.526;9.044;2022-12-05T12:47:03;7.00;75.73
69084;SHT31;56185;48.526;9.044;2022-12-05T12:49:48;7.06;75.03
69084;SHT31;56185;48.526;9.044;2022-12-05T12:55:17;6.91;74.76
69084;SHT31;56185;48.526;9.044;2022-12-05T13:03:45;6.91;74.59
69084;SHT31;56185;48.526;9.044;2022-12-05T13:06:15;7.00;74.95
69084;SHT31;56185;48.526;9.044;2022-12-05T13:08:52;7.07;75.47
69084;SHT31;56185;48.526;9.044;2022-12-05T13:11:19;7.22;74.40
69084;SHT31;56185;48.526;9.044;2022-12-05T13:13:52;7.26;73.32
69084;SHT31;56185;48.526;9.044;2022-12-05T13:16:23;7.17;72.74
69084;SHT31;56185;48.526;9.044;2022-12-05T13:18:57;7.28;73.26
69084;SHT31;56185;48.526;9.044;2022-12-05T13:21:23;7.31;72.99
69084;SHT31;56185;48.526;9.044;2022-12-05T13:23:52;7.14;72.44
69084;SHT31;56185;48.526;9.044;2022-12-05T13:26:17;7.17;73.17
69084;SHT31;56185;48.526;9.044;2022-12-05T13:29:13;7.24;73.53
69084;SHT31;56185;48.526;9.044;2022-12-05T13:31:44;7.33;73.23
69084;SHT31;56185;48.526;9.044;2022-12-05T13:36:57;7.20;71.77
69084;SHT31;56185;48.526;9.044;2022-12-05T13:39:41;7.26;72.32
69084;SHT31;56185;48.526;9.044;2022-12-05T13:42:34;7.30;73.74
69084;SHT31;56185;48.526;9.044;2022-12-05T13:45:36;7.20;72.38
69084;SHT31;56185;48.526;9.044;2022-12-05T13:48:21;7.16;73.38
69084;SHT31;56185;48.526;9.044;2022-12-05T13:51:04;6.76;72.64
69084;SHT31;56185;48.526;9.044;2022-12-05T13:53:56;6.85;73.87
69084;SHT31;56185;48.526;9.044;2022-12-05T14:33:32;6.59;72.32
69084;SHT31;56185;48.526;9.044;2022-12-05T14:39:32;6.67;71.94
69084;SHT31;56185;48.526;9.044;2022-12-05T14:42:00;6.55;72.37
69084;SHT31;56185;48.526;9.044;2022-12-05T14:44:28;6.59;71.66
69084;SHT31;56185;48.526;9.044;2022-12-05T14:46:54;6.56;71.01
69084;SHT31;56185;48.526;9.044;2022-12-05T14:52:25;6.51;71.13
69084;SHT31;56185;48.526;9.044;2022-12-05T14:54:53;6.55;71.57
69084;SHT31;56185;48.526;9.044;2022-12-05T14:57:19;6.40;71.47
69084;SHT31;56185;48.526;9.044;2022-12-05T14:59:56;6.42;71.17
69084;SHT31;56185;48.526;9.044;2022-12-05T15:02:26;6.33;71.98
69084;SHT31;56185;48.526;9.044;2022-12-05T15:05:21;6.38;73.41
69084;SHT31;56185;48.526;9.044;2022-12-05T15:07:48;6.31;72.74
69084;SHT31;56185;48.526;9.044;2022-12-05T15:12:49;6.40;73.26
69084;SHT31;56185;48.526;9.044;2022-12-05T15:15:27;6.37;73.22
69084;SHT31;56185;48.526;9.044;2022-12-05T15:17:59;6.35;73.16
69084;SHT31;56185;48.526;9.044;2022-12-05T15:20:33;6.34;74.61
69084;SHT31;56185;48.526;9.044;2022-12-05T15:23:02;6.25;74.67
69084;SHT31;56185;48.526;9.044;2022-12-05T15:25:31;6.25;74.50
69084;SHT31;56185;48.526;9.044;2022-12-05T15:30:29;6.02;75.08
69084;SHT31;56185;48.526;9.044;2022-12-05T15:32:55;5.99;75.53
69084;SHT31;56185;48.526;9.044;2022-12-05T15:35:26;5.97;75.88
69084;SHT31;56185;48.526;9.044;2022-12-05T15:38:03;5.69;75.72
69084;SHT31;56185;48.526;9.044;2022-12-05T15:40:34;5.75;76.00
69084;SHT31;56185;48.526;9.044;2022-12-05T15:42:59;5.70;76.99
69084;SHT31;56185;48.526;9.044;2022-12-05T15:45:26;5.75;77.08
69084;SHT31;56185;48.526;9.044;2022-12-05T15:50:39;5.77;76.98
69084;SHT31;56185;48.526;9.044;2022-12-05T15:55:56;5.60;76.62
69084;SHT31;56185;48.526;9.044;2022-12-05T16:01:03;5.66;76.71
69084;SHT31;56185;48.526;9.044;2022-12-05T16:03:58;5.59;77.05
69084;SHT31;56185;48.526;9.044;2022-12-05T16:09:05;5.54;78.33
69084;SHT31;56185;48.526;9.044;2022-12-05T16:11:32;5.62;78.27
69084;SHT31;56185;48.526;9.044;2022-12-05T16:14:02;5.54;77.95
69084;SHT31;56185;48.526;9.044;2022-12-05T16:16:32;5.45;78.08
69084;SHT31;56185;48.526;9.044;2022-12-05T16:19:13;5.42;77.51
69084;SHT31;56185;48.526;9.044;2022-12-05T16:21:43;5.30;78.34
69084;SHT31;56185;48.526;9.044;2022-12-05T16:24:27;5.34;78.43
69084;SHT31;56185;48.526;9.044;2022-12-05T16:27:11;5.36;78.28
69084;SHT31;56185;48.526;9.044;2022-12-05T16:29:37;5.45;77.25
69084;SHT31;56185;48.526;9.044;2022-12-05T16:32:11;5.38;77.43
69084;SHT31;56185;48.526;9.044;2022-12-05T16:34:38;5.36;78.54
69084;SHT31;56185;48.526;9.044;2022-12-05T16:37:03;5.31;78.10
